createdAt,value
2019-06-26T00:00:10.667Z,25.10
2019-06-26T00:02:39.082Z,25.10
2019-06-26T00:05:09.095Z,25.20
2019-06-26T00:07:37.526Z,25.20
2019-06-26T00:10:06.369Z,25.10
2019-06-26T00:12:34.849Z,25.20
2019-06-26T00:15:04.434Z,25.10
2019-06-26T00:17:32.850Z,25.10
2019-06-26T00:20:01.267Z,25.10
2019-06-26T00:22:29.831Z,24.90
2019-06-26T00:24:58.238Z,24.80
2019-06-26T00:27:26.663Z,24.50
2019-06-26T00:29:55.054Z,24.40
2019-06-26T00:32:23.473Z,24.30
2019-06-26T00:34:51.898Z,24.20
2019-06-26T00:37:20.305Z,24.20
2019-06-26T00:39:48.725Z,24.30
2019-06-26T00:42:17.136Z,24.40
2019-06-26T00:44:45.550Z,24.40
2019-06-26T00:47:13.969Z,24.50
2019-06-26T00:49:42.382Z,24.50
2019-06-26T00:52:10.805Z,24.60
2019-06-26T00:54:39.209Z,24.70
2019-06-26T00:57:07.622Z,24.70
2019-06-26T00:59:36.042Z,24.70
2019-06-26T01:02:04.525Z,24.70
2019-06-26T01:04:40.537Z,24.50
2019-06-26T01:07:08.960Z,24.50
2019-06-26T01:09:37.358Z,24.50
2019-06-26T01:12:05.850Z,24.40
2019-06-26T01:14:34.252Z,24.40
2019-06-26T01:17:02.783Z,24.30
2019-06-26T01:19:31.302Z,24.20
2019-06-26T01:21:59.754Z,24.10
2019-06-26T01:24:28.170Z,24.10
2019-06-26T01:26:56.599Z,24.20
2019-06-26T01:29:25.003Z,24.20
2019-06-26T01:31:53.432Z,24.20
2019-06-26T01:34:21.847Z,24.10
2019-06-26T01:36:50.287Z,24.10
2019-06-26T01:39:18.714Z,24.00
2019-06-26T01:41:47.142Z,24.00
2019-06-26T01:44:15.852Z,24.00
2019-06-26T01:46:44.881Z,23.90
2019-06-26T01:49:13.287Z,23.90
2019-06-26T01:51:41.750Z,23.80
2019-06-26T01:54:10.236Z,23.70
2019-06-26T01:56:38.660Z,23.70
2019-06-26T01:59:07.077Z,23.70
2019-06-26T02:01:35.564Z,23.60
2019-06-26T02:04:03.967Z,23.50
2019-06-26T02:06:32.404Z,23.60
2019-06-26T02:09:00.851Z,23.60
2019-06-26T02:11:29.316Z,23.60
2019-06-26T02:13:57.716Z,23.60
2019-06-26T02:16:26.145Z,23.50
2019-06-26T02:18:56.210Z,23.40
2019-06-26T02:21:24.753Z,23.30
2019-06-26T02:23:53.171Z,23.20
2019-06-26T02:26:21.595Z,23.20
2019-06-26T02:28:49.988Z,23.30
2019-06-26T02:31:18.397Z,23.20
2019-06-26T02:33:46.809Z,23.20
2019-06-26T02:36:15.219Z,23.30
2019-06-26T02:38:43.621Z,23.20
2019-06-26T02:41:12.058Z,23.20
2019-06-26T02:43:40.560Z,23.10
2019-06-26T02:46:09.060Z,23.10
2019-06-26T02:48:37.489Z,23.20
2019-06-26T02:51:05.909Z,23.10
2019-06-26T02:53:34.338Z,23.00
2019-06-26T02:56:02.780Z,23.00
2019-06-26T02:58:31.244Z,23.00
2019-06-26T03:00:59.683Z,23.00
2019-06-26T03:03:28.151Z,23.10
2019-06-26T03:05:56.662Z,23.10
2019-06-26T03:08:25.151Z,23.10
2019-06-26T03:10:53.570Z,23.00
2019-06-26T03:13:22.046Z,22.90
2019-06-26T03:15:50.889Z,22.90
2019-06-26T03:18:19.539Z,22.90
2019-06-26T03:20:55.881Z,22.90
2019-06-26T03:23:25.116Z,22.80
2019-06-26T03:25:53.591Z,22.90
2019-06-26T03:28:22.032Z,22.80
2019-06-26T03:30:50.460Z,22.80
2019-06-26T03:33:18.927Z,22.80
2019-06-26T03:35:47.361Z,22.80
2019-06-26T03:38:15.882Z,22.70
2019-06-26T03:40:44.315Z,22.50
2019-06-26T03:43:12.785Z,22.40
2019-06-26T03:45:41.276Z,22.30
2019-06-26T03:48:09.829Z,22.20
2019-06-26T03:50:38.327Z,22.00
2019-06-26T03:53:06.906Z,22.20
2019-06-26T03:55:35.376Z,22.30
2019-06-26T03:58:03.851Z,22.40
2019-06-26T04:00:40.887Z,22.50
2019-06-26T04:03:09.718Z,22.50
2019-06-26T04:05:38.535Z,22.60
2019-06-26T04:08:07.665Z,22.50
2019-06-26T04:10:36.376Z,22.60
2019-06-26T04:13:05.261Z,22.60
2019-06-26T04:15:41.902Z,22.60
2019-06-26T04:18:03.987Z,22.50
2019-06-26T04:20:32.493Z,22.50
2019-06-26T04:23:00.988Z,22.60
2019-06-26T04:25:29.481Z,22.70
2019-06-26T04:27:59.214Z,22.70
2019-06-26T04:30:27.690Z,22.70
2019-06-26T04:32:56.201Z,22.60
2019-06-26T04:35:24.637Z,22.70
2019-06-26T04:37:53.083Z,22.60
2019-06-26T04:40:22.498Z,22.70
2019-06-26T04:42:51.016Z,22.50
2019-06-26T04:45:19.667Z,22.60
2019-06-26T04:47:48.125Z,22.60
2019-06-26T04:50:17.194Z,22.60
2019-06-26T04:52:45.644Z,22.70
2019-06-26T04:55:14.618Z,22.70
2019-06-26T04:57:43.092Z,22.80
2019-06-26T05:00:13.545Z,22.80
2019-06-26T05:02:42.033Z,22.70
2019-06-26T05:05:11.000Z,22.80
2019-06-26T05:07:39.457Z,22.90
2019-06-26T05:10:09.015Z,23.00
2019-06-26T05:12:37.473Z,23.10
2019-06-26T05:15:07.951Z,23.10
2019-06-26T05:17:36.462Z,23.00
2019-06-26T05:20:09.047Z,23.10
2019-06-26T05:22:37.617Z,23.20
2019-06-26T05:25:07.689Z,23.30
2019-06-26T05:27:36.309Z,23.30
2019-06-26T05:30:08.259Z,23.50
2019-06-26T05:32:36.697Z,23.50
2019-06-26T05:35:08.794Z,23.60
2019-06-26T05:37:37.268Z,23.90
2019-06-26T05:40:14.726Z,23.90
2019-06-26T05:42:43.138Z,23.90
2019-06-26T05:45:13.345Z,24.00
2019-06-26T05:47:41.761Z,24.10
2019-06-26T05:50:11.228Z,24.20
2019-06-26T05:52:42.552Z,24.30
2019-06-26T05:55:10.525Z,24.50
2019-06-26T05:57:41.777Z,24.60
2019-06-26T06:00:10.007Z,24.70
2019-06-26T06:02:38.425Z,24.80
2019-06-26T06:05:08.254Z,25.00
2019-06-26T06:07:36.671Z,25.20
2019-06-26T06:10:08.130Z,25.30
2019-06-26T06:12:36.826Z,25.30
2019-06-26T06:15:08.912Z,25.40
2019-06-26T06:17:37.647Z,25.50
2019-06-26T06:20:08.380Z,25.60
2019-06-26T06:22:36.973Z,25.70
2019-06-26T06:25:06.218Z,26.00
2019-06-26T06:27:34.793Z,26.20
2019-06-26T06:30:05.004Z,26.40
2019-06-26T06:32:33.475Z,26.60
2019-06-26T06:35:01.938Z,26.70
2019-06-26T06:37:30.456Z,26.90
2019-06-26T06:39:58.891Z,27.10
2019-06-26T06:42:27.360Z,27.40
2019-06-26T06:44:55.797Z,27.90
2019-06-26T06:47:24.263Z,27.90
2019-06-26T06:49:52.683Z,28.10
2019-06-26T06:52:21.177Z,28.10
2019-06-26T06:54:49.694Z,28.20
2019-06-26T06:57:18.167Z,28.60
2019-06-26T06:59:46.604Z,28.90
2019-06-26T07:02:15.062Z,28.90
2019-06-26T07:04:43.541Z,29.50
2019-06-26T07:07:12.057Z,29.70
2019-06-26T07:09:40.481Z,29.90
2019-06-26T07:12:08.921Z,29.70
2019-06-26T07:14:37.422Z,30.00
2019-06-26T07:17:19.301Z,30.00
2019-06-26T07:19:36.022Z,30.00
2019-06-26T07:22:07.233Z,30.30
2019-06-26T07:24:34.619Z,30.50
2019-06-26T07:27:03.006Z,30.50
2019-06-26T07:29:31.434Z,30.40
2019-06-26T07:31:59.834Z,30.50
2019-06-26T07:34:28.246Z,30.50
2019-06-26T07:36:56.652Z,30.60
2019-06-26T07:39:25.073Z,31.20
2019-06-26T07:41:53.467Z,31.60
2019-06-26T07:44:21.885Z,31.50
2019-06-26T07:46:50.279Z,31.40
2019-06-26T07:49:18.690Z,31.40
2019-06-26T07:51:47.081Z,31.90
2019-06-26T07:54:15.509Z,31.60
2019-06-26T07:56:43.905Z,31.60
2019-06-26T07:59:12.404Z,32.00
2019-06-26T08:01:40.816Z,31.90
2019-06-26T08:04:09.279Z,31.60
2019-06-26T08:06:37.739Z,31.90
2019-06-26T08:09:07.420Z,31.90
2019-06-26T08:11:35.824Z,31.90
2019-06-26T08:14:04.306Z,32.00
2019-06-26T08:16:34.465Z,32.10
2019-06-26T08:19:02.895Z,32.30
2019-06-26T08:21:31.347Z,32.30
2019-06-26T08:23:59.906Z,32.50
2019-06-26T08:26:28.323Z,32.80
2019-06-26T08:28:56.751Z,32.90
2019-06-26T08:31:25.148Z,33.00
2019-06-26T08:33:53.568Z,33.00
2019-06-26T08:36:21.963Z,33.10
2019-06-26T08:38:50.375Z,33.30
2019-06-26T08:41:18.780Z,33.60
2019-06-26T08:43:47.189Z,33.50
2019-06-26T08:46:15.586Z,33.60
2019-06-26T08:48:44.000Z,33.50
2019-06-26T08:51:12.411Z,33.60
2019-06-26T08:53:40.832Z,33.50
2019-06-26T08:56:09.233Z,33.70
2019-06-26T08:58:37.648Z,33.70
2019-06-26T09:01:06.047Z,33.60
2019-06-26T09:03:34.469Z,33.70
2019-06-26T09:06:02.853Z,33.80
2019-06-26T09:08:31.337Z,33.90
2019-06-26T09:10:59.773Z,33.90
2019-06-26T09:13:28.187Z,34.20
2019-06-26T09:15:56.631Z,34.30
2019-06-26T09:18:34.819Z,34.40
2019-06-26T09:20:55.197Z,34.60
2019-06-26T09:23:23.608Z,34.80
2019-06-26T09:25:52.101Z,35.00
2019-06-26T09:28:20.510Z,35.00
2019-06-26T09:30:48.925Z,35.00
2019-06-26T09:33:17.330Z,35.20
2019-06-26T09:35:45.749Z,35.10
2019-06-26T09:38:14.148Z,35.60
2019-06-26T09:40:42.548Z,36.00
2019-06-26T09:46:39.497Z,36.80
2019-06-26T09:49:07.901Z,37.50
2019-06-26T09:51:36.292Z,37.80
2019-06-26T09:54:04.777Z,38.10
2019-06-26T09:56:33.174Z,38.40
2019-06-26T09:59:01.691Z,38.40
2019-06-26T10:01:30.053Z,38.70
2019-06-26T10:03:58.453Z,39.20
2019-06-26T10:06:26.845Z,40.00
2019-06-26T10:08:55.247Z,40.50
2019-06-26T10:11:23.634Z,40.60
2019-06-26T10:13:52.027Z,40.90
2019-06-26T10:16:20.429Z,41.00
2019-06-26T10:18:48.801Z,41.00
2019-06-26T10:21:17.188Z,41.50
2019-06-26T10:23:45.577Z,41.20
2019-06-26T10:26:13.969Z,41.50
2019-06-26T10:28:42.378Z,41.60
2019-06-26T10:31:10.774Z,41.30
2019-06-26T10:33:39.189Z,41.60
2019-06-26T10:36:07.577Z,41.60
2019-06-26T10:38:35.967Z,41.50
2019-06-26T10:41:04.360Z,40.90
2019-06-26T10:43:32.748Z,40.10
2019-06-26T10:46:01.152Z,40.00
2019-06-26T10:48:29.578Z,39.70
2019-06-26T10:50:58.998Z,39.60
2019-06-26T10:53:27.634Z,39.70
2019-06-26T10:55:56.028Z,39.80
2019-06-26T10:58:24.415Z,39.80
2019-06-26T11:00:52.815Z,39.10
2019-06-26T11:03:21.197Z,39.10
2019-06-26T11:05:49.597Z,38.80
2019-06-26T11:08:17.998Z,39.00
2019-06-26T11:10:46.477Z,39.30
2019-06-26T11:13:15.051Z,39.50
2019-06-26T11:15:43.441Z,39.30
2019-06-26T11:18:11.833Z,39.30
2019-06-26T11:20:40.803Z,39.50
2019-06-26T11:23:09.182Z,39.00
2019-06-26T11:25:37.692Z,38.20
2019-06-26T11:28:06.144Z,38.10
2019-06-26T11:34:02.849Z,38.20
2019-06-26T11:36:32.770Z,38.30
2019-06-26T11:39:01.190Z,38.40
2019-06-26T11:41:29.688Z,38.10
2019-06-26T11:43:58.083Z,37.70
2019-06-26T11:46:26.504Z,37.80
2019-06-26T11:48:54.934Z,37.60
2019-06-26T11:51:23.355Z,37.60
2019-06-26T11:53:51.754Z,37.60
2019-06-26T11:56:20.171Z,37.50
2019-06-26T11:58:48.580Z,37.80
2019-06-26T12:01:17.008Z,37.90
2019-06-26T12:03:45.450Z,37.80
2019-06-26T12:06:18.920Z,37.70
2019-06-26T12:08:44.028Z,37.70
2019-06-26T12:11:12.445Z,37.60
2019-06-26T12:13:40.857Z,37.50
2019-06-26T12:16:09.271Z,37.30
2019-06-26T12:18:37.669Z,37.20
2019-06-26T12:21:06.090Z,37.10
2019-06-26T12:23:34.498Z,37.10
2019-06-26T12:26:02.912Z,37.20
2019-06-26T12:28:31.324Z,37.30
2019-06-26T12:30:59.786Z,37.20
2019-06-26T12:33:28.238Z,37.20
2019-06-26T12:35:57.430Z,36.90
2019-06-26T12:38:25.839Z,36.90
2019-06-26T12:40:54.252Z,36.90
2019-06-26T12:43:22.674Z,37.00
2019-06-26T12:45:51.105Z,37.10
2019-06-26T12:48:19.519Z,37.20
2019-06-26T12:50:47.952Z,37.30
2019-06-26T12:53:16.394Z,37.40
2019-06-26T12:55:44.822Z,37.50
2019-06-26T12:58:18.122Z,37.50
2019-06-26T13:00:43.377Z,37.40
2019-06-26T13:03:11.802Z,37.40
2019-06-26T13:05:40.213Z,37.40
2019-06-26T13:08:08.639Z,37.40
2019-06-26T13:10:48.856Z,37.10
2019-06-26T13:13:07.188Z,37.20
2019-06-26T13:15:35.593Z,37.20
2019-06-26T13:18:04.053Z,37.00
2019-06-26T13:20:32.542Z,37.00
2019-06-26T13:23:00.994Z,36.90
2019-06-26T13:25:29.400Z,37.00
2019-06-26T13:27:57.842Z,36.80
2019-06-26T13:30:29.317Z,36.80
2019-06-26T13:32:57.747Z,36.90
2019-06-26T13:35:26.151Z,36.90
2019-06-26T13:37:54.559Z,37.10
2019-06-26T13:40:22.970Z,37.00
2019-06-26T13:42:51.390Z,37.10
2019-06-26T13:45:19.831Z,37.10
2019-06-26T13:47:48.562Z,36.90
2019-06-26T13:50:17.399Z,36.80
2019-06-26T13:52:45.828Z,36.70
2019-06-26T13:55:14.362Z,36.70
2019-06-26T13:57:42.800Z,36.70
2019-06-26T14:00:11.949Z,36.90
2019-06-26T14:02:40.433Z,37.00
2019-06-26T14:05:09.574Z,37.10
2019-06-26T14:07:39.320Z,37.00
2019-06-26T14:10:08.900Z,36.90
2019-06-26T14:12:37.360Z,36.80
2019-06-26T14:15:07.351Z,36.60
2019-06-26T14:17:35.824Z,36.60
2019-06-26T14:20:06.369Z,36.60
2019-06-26T14:22:34.771Z,36.50
2019-06-26T14:25:03.359Z,36.50
2019-06-26T14:27:31.753Z,36.50
2019-06-26T14:30:00.330Z,36.50
2019-06-26T14:32:28.941Z,36.60
2019-06-26T14:34:57.374Z,36.70
2019-06-26T14:37:25.770Z,36.70
2019-06-26T14:39:54.194Z,36.70
2019-06-26T14:42:22.593Z,36.60
2019-06-26T14:44:52.819Z,36.50
2019-06-26T14:47:21.134Z,36.50
2019-06-26T14:49:49.547Z,36.60
2019-06-26T14:52:17.975Z,36.50
2019-06-26T14:54:46.444Z,36.50
2019-06-26T14:57:14.855Z,36.50
2019-06-26T14:59:43.268Z,36.40
2019-06-26T15:02:11.679Z,36.50
2019-06-26T15:04:40.167Z,36.50
2019-06-26T15:07:08.587Z,36.50
2019-06-26T15:09:37.026Z,36.40
2019-06-26T15:12:05.431Z,36.40
2019-06-26T15:14:33.843Z,36.40
2019-06-26T15:17:02.257Z,36.20
2019-06-26T15:19:30.676Z,36.20
2019-06-26T15:21:59.159Z,36.20
2019-06-26T15:24:54.702Z,36.30
2019-06-26T15:27:23.131Z,36.30
2019-06-26T15:29:51.526Z,36.50
2019-06-26T15:36:34.173Z,36.40
2019-06-26T15:39:05.427Z,36.30
2019-06-26T15:41:33.838Z,36.30
2019-06-26T15:44:02.288Z,36.40
2019-06-26T15:46:30.718Z,36.40
2019-06-26T15:48:59.116Z,36.50
2019-06-26T15:51:27.524Z,36.50
2019-06-26T15:53:55.923Z,36.30
2019-06-26T15:56:24.352Z,36.30
2019-06-26T15:58:52.752Z,36.20
2019-06-26T16:01:21.167Z,36.20
2019-06-26T16:03:49.620Z,36.00
2019-06-26T16:06:18.020Z,36.00
2019-06-26T16:08:46.434Z,36.00
2019-06-26T16:11:14.826Z,36.00
2019-06-26T16:13:43.252Z,36.00
2019-06-26T16:16:11.698Z,36.00
2019-06-26T16:18:44.710Z,36.00
2019-06-26T16:21:13.103Z,36.00
2019-06-26T16:23:41.515Z,35.90
2019-06-26T16:26:09.947Z,35.80
2019-06-26T16:28:38.350Z,35.80
2019-06-26T16:31:06.742Z,35.80
2019-06-26T16:33:35.204Z,35.70
2019-06-26T16:36:03.614Z,35.70
2019-06-26T16:38:32.010Z,35.60
2019-06-26T16:41:00.409Z,35.70
2019-06-26T16:43:28.842Z,35.60
2019-06-26T16:45:57.239Z,35.50
2019-06-26T16:48:25.703Z,35.50
2019-06-26T16:50:54.090Z,35.50
2019-06-26T16:53:22.498Z,35.50
2019-06-26T16:55:50.900Z,35.50
2019-06-26T16:58:19.311Z,35.40
2019-06-26T17:01:51.613Z,35.40
2019-06-26T17:04:20.021Z,35.40
2019-06-26T17:06:48.415Z,35.30
2019-06-26T17:09:16.831Z,35.30
2019-06-26T17:11:45.241Z,35.30
2019-06-26T17:14:14.526Z,35.20
2019-06-26T17:16:42.931Z,35.20
2019-06-26T17:19:11.392Z,35.20
2019-06-26T17:21:39.791Z,35.10
2019-06-26T17:24:08.466Z,35.10
2019-06-26T17:26:36.875Z,35.00
2019-06-26T17:29:05.417Z,34.90
2019-06-26T17:31:33.827Z,34.90
2019-06-26T17:34:02.223Z,34.90
2019-06-26T17:36:30.630Z,34.90
2019-06-26T17:38:59.017Z,34.90
2019-06-26T17:41:27.439Z,34.90
2019-06-26T17:43:55.831Z,34.70
2019-06-26T17:46:24.230Z,34.70
2019-06-26T17:48:52.677Z,34.60
2019-06-26T17:51:21.122Z,34.60
2019-06-26T17:53:49.519Z,34.60
2019-06-26T17:56:17.937Z,34.60
2019-06-26T17:58:46.344Z,34.60
2019-06-26T18:01:14.763Z,34.60
2019-06-26T18:03:43.159Z,34.60
2019-06-26T18:06:11.574Z,34.60
2019-06-26T18:08:39.966Z,34.60
2019-06-26T18:11:08.369Z,34.50
2019-06-26T18:13:36.796Z,34.50
2019-06-26T18:16:05.209Z,34.50
2019-06-26T18:18:33.648Z,34.40
2019-06-26T18:21:02.088Z,34.40
2019-06-26T18:23:37.701Z,34.30
2019-06-26T18:26:12.538Z,34.30
2019-06-26T18:28:30.745Z,34.30
2019-06-26T18:30:59.175Z,34.30
2019-06-26T18:33:27.633Z,34.20
2019-06-26T18:35:56.028Z,34.20
2019-06-26T18:38:24.439Z,34.10
2019-06-26T18:40:52.847Z,34.10
2019-06-26T18:43:21.250Z,34.10
2019-06-26T18:45:49.673Z,34.00
2019-06-26T18:48:18.076Z,33.90
2019-06-26T18:51:16.960Z,33.80
2019-06-26T18:53:53.392Z,33.80
2019-06-26T18:56:16.042Z,33.70
2019-06-26T18:58:44.602Z,33.70
2019-06-26T19:01:13.002Z,33.70
2019-06-26T19:03:41.394Z,33.60
2019-06-26T19:06:09.802Z,33.50
2019-06-26T19:08:38.214Z,33.50
2019-06-26T19:11:06.631Z,33.40
2019-06-26T19:13:35.017Z,33.30
2019-06-26T19:16:04.648Z,33.10
2019-06-26T19:18:33.402Z,33.00
2019-06-26T19:21:01.821Z,32.80
2019-06-26T19:23:30.291Z,32.60
2019-06-26T19:25:58.685Z,32.30
2019-06-26T19:28:27.103Z,32.20
2019-06-26T19:30:55.492Z,32.20
2019-06-26T19:33:23.962Z,32.10
2019-06-26T19:35:52.511Z,32.10
2019-06-26T19:38:21.034Z,32.10
2019-06-26T19:40:49.436Z,32.10
2019-06-26T19:43:17.842Z,32.10
2019-06-26T19:45:46.251Z,32.00
2019-06-26T19:48:14.652Z,32.00
2019-06-26T19:50:43.050Z,32.00
2019-06-26T19:53:11.471Z,32.00
2019-06-26T19:55:39.869Z,32.00
2019-06-26T19:58:08.287Z,32.00
2019-06-26T20:00:36.679Z,32.00
2019-06-26T20:03:05.107Z,31.90
2019-06-26T20:06:16.371Z,31.80
2019-06-26T20:08:54.394Z,31.80
2019-06-26T20:11:14.899Z,31.60
2019-06-26T20:13:43.310Z,31.60
2019-06-26T20:16:11.746Z,31.70
2019-06-26T20:18:40.149Z,31.60
2019-06-26T20:21:08.552Z,31.40
2019-06-26T20:23:36.972Z,31.30
2019-06-26T20:26:05.374Z,31.20
2019-06-26T20:28:33.802Z,31.10
2019-06-26T20:31:02.589Z,31.10
2019-06-26T20:33:31.184Z,31.10
2019-06-26T20:35:59.641Z,31.10
2019-06-26T20:38:28.054Z,30.90
2019-06-26T20:40:56.453Z,30.90
2019-06-26T20:43:24.866Z,30.90
2019-06-26T20:45:53.338Z,30.90
2019-06-26T20:48:21.750Z,30.90
2019-06-26T20:50:50.158Z,30.90
2019-06-26T20:53:18.573Z,30.90
2019-06-26T20:55:46.975Z,30.90
2019-06-26T20:58:15.411Z,30.80
2019-06-26T21:00:43.866Z,30.70
2019-06-26T21:03:12.290Z,30.60
2019-06-26T21:05:40.674Z,30.60
2019-06-26T21:08:09.082Z,30.50
2019-06-26T21:10:37.534Z,30.50
2019-06-26T21:13:05.967Z,30.40
2019-06-26T21:15:34.371Z,30.40
2019-06-26T21:18:02.930Z,30.40
2019-06-26T21:20:31.365Z,30.40
2019-06-26T21:22:59.919Z,30.50
2019-06-26T21:25:28.313Z,30.40
2019-06-26T21:27:56.722Z,30.40
2019-06-26T21:30:25.189Z,30.40
2019-06-26T21:32:53.588Z,30.30
2019-06-26T21:35:21.999Z,30.40
2019-06-26T21:37:50.406Z,30.30
2019-06-26T21:40:19.073Z,30.20
2019-06-26T21:42:47.558Z,30.20
2019-06-26T21:45:20.068Z,30.20
2019-06-26T21:47:47.931Z,30.00
2019-06-26T21:50:16.404Z,30.00
2019-06-26T21:52:44.807Z,30.00
2019-06-26T21:55:13.290Z,30.00
2019-06-26T21:57:41.704Z,30.00
2019-06-26T22:00:11.519Z,29.90
2019-06-26T22:02:39.922Z,29.80
2019-06-26T22:05:09.538Z,29.80
2019-06-26T22:07:38.312Z,29.60
2019-06-26T22:10:07.470Z,29.70
2019-06-26T22:12:35.902Z,29.70
2019-06-26T22:15:09.866Z,29.70
2019-06-26T22:17:38.334Z,29.60
2019-06-26T22:20:12.357Z,29.50
2019-06-26T22:22:38.710Z,29.50
2019-06-26T22:25:07.822Z,29.40
2019-06-26T22:27:36.202Z,29.40
2019-06-26T22:30:07.159Z,29.40
2019-06-26T22:32:35.796Z,29.30
2019-06-26T22:35:05.834Z,29.40
2019-06-26T22:37:35.776Z,29.40
2019-06-26T22:40:05.315Z,29.30
2019-06-26T22:42:33.794Z,29.20
2019-06-26T22:45:02.206Z,29.10
2019-06-26T22:47:30.614Z,29.00
2019-06-26T22:49:59.045Z,28.90
2019-06-26T22:52:27.445Z,28.90
2019-06-26T22:54:57.437Z,28.80
2019-06-26T22:57:25.886Z,28.80
2019-06-26T22:59:54.295Z,28.70
2019-06-26T23:02:22.700Z,28.70
2019-06-26T23:04:51.149Z,28.70
2019-06-26T23:07:19.600Z,28.70
2019-06-26T23:09:48.024Z,28.70
2019-06-26T23:12:16.927Z,28.60
2019-06-26T23:14:45.344Z,28.60
2019-06-26T23:17:15.322Z,28.60
2019-06-26T23:19:43.721Z,28.40
2019-06-26T23:22:12.125Z,28.20
2019-06-26T23:24:40.529Z,28.20
2019-06-26T23:27:08.951Z,28.30
2019-06-26T23:29:37.424Z,28.40
2019-06-26T23:32:05.847Z,28.40
2019-06-26T23:34:34.253Z,28.30
2019-06-26T23:37:02.673Z,28.20
2019-06-26T23:39:31.137Z,28.20
2019-06-26T23:41:59.577Z,28.10
2019-06-26T23:44:27.986Z,28.00
2019-06-26T23:46:56.428Z,28.00
2019-06-26T23:49:24.871Z,28.00
2019-06-26T23:51:53.300Z,27.90
2019-06-26T23:54:21.708Z,27.90
2019-06-26T23:56:50.123Z,27.70
2019-06-26T23:59:18.527Z,27.70
